Gornji Humac, Croatia
Current Conditions -  °F | °C
As of 2:30 AM on Monday 26 Jan 2015 (Local Time) from LDSP Reporting Station
Clear Clear  
Wind Chill:   Ceiling: Unl
Heat Index:   Visibility: 6mi
Dew Point: -5°   Wind: 8mph
Humidity: 43%   Direction: 110°ESE
Pressure: 30.06"   Gusts: NA
Location:  43.29°N, 16.71°E
Report Text: LDSP 260030Z 11007KT 030V190 CAVOK 07/M05 Q1018
Loading
Personal Weather Stations






























Interactive Weather Map New forecast layout! Learn more

10-Day Weather Forecast

Advertisements
Track Severe Weather on mobile